sensor_id;sensor_type;location;lat;lon;timestamp;P1;durP1;ratioP1;P2;durP2;ratioP2
11823;SDS011;5969;50.780;7.726;2023-04-03T02:19:57;4.28;;;1.98;;
11823;SDS011;5969;50.780;7.726;2023-04-03T02:23:02;2.17;;;1.98;;
11823;SDS011;5969;50.780;7.726;2023-04-03T02:33:01;2.65;;;1.70;;
11823;SDS011;5969;50.780;7.726;2023-04-03T02:36:08;3.65;;;1.83;;
11823;SDS011;5969;50.780;7.726;2023-04-03T02:39:05;2.28;;;1.88;;
11823;SDS011;5969;50.780;7.726;2023-04-03T02:41:46;2.92;;;1.80;;
11823;SDS011;5969;50.780;7.726;2023-04-03T02:44:34;4.30;;;2.13;;
11823;SDS011;5969;50.780;7.726;2023-04-03T02:47:29;2.55;;;1.80;;
11823;SDS011;5969;50.780;7.726;2023-04-03T02:53:10;2.83;;;1.65;;
11823;SDS011;5969;50.780;7.726;2023-04-03T02:56:04;3.40;;;2.00;;
11823;SDS011;5969;50.780;7.726;2023-04-03T02:58:54;3.42;;;1.70;;
11823;SDS011;5969;50.780;7.726;2023-04-03T03:01:39;2.28;;;1.65;;
11823;SDS011;5969;50.780;7.726;2023-04-03T03:04:21;2.03;;;1.80;;
11823;SDS011;5969;50.780;7.726;2023-04-03T03:07:20;3.92;;;1.85;;
11823;SDS011;5969;50.780;7.726;2023-04-03T03:10:24;4.18;;;1.60;;
11823;SDS011;5969;50.780;7.726;2023-04-03T03:13:12;3.38;;;1.60;;
11823;SDS011;5969;50.780;7.726;2023-04-03T03:16:07;2.60;;;1.77;;
11823;SDS011;5969;50.780;7.726;2023-04-03T03:19:21;1.88;;;1.65;;
11823;SDS011;5969;50.780;7.726;2023-04-03T03:28:37;3.25;;;1.65;;
11823;SDS011;5969;50.780;7.726;2023-04-03T03:34:34;4.80;;;1.65;;
11823;SDS011;5969;50.780;7.726;2023-04-03T03:40:11;2.03;;;1.55;;
11823;SDS011;5969;50.780;7.726;2023-04-03T03:43:23;3.55;;;1.70;;
11823;SDS011;5969;50.780;7.726;2023-04-03T03:46:27;3.35;;;2.30;;
11823;SDS011;5969;50.780;7.726;2023-04-03T03:49:34;2.05;;;1.60;;
11823;SDS011;5969;50.780;7.726;2023-04-03T03:52:31;2.47;;;1.80;;
11823;SDS011;5969;50.780;7.726;2023-04-03T03:55:33;3.45;;;1.60;;
11823;SDS011;5969;50.780;7.726;2023-04-03T04:01:27;3.58;;;1.90;;
11823;SDS011;5969;50.780;7.726;2023-04-03T04:04:17;3.28;;;1.70;;
11823;SDS011;5969;50.780;7.726;2023-04-03T04:07:55;2.00;;;1.60;;
11823;SDS011;5969;50.780;7.726;2023-04-03T04:10:56;2.45;;;1.60;;
11823;SDS011;5969;50.780;7.726;2023-04-03T04:13:33;3.00;;;1.42;;
11823;SDS011;5969;50.780;7.726;2023-04-03T04:16:42;3.00;;;1.95;;
11823;SDS011;5969;50.780;7.726;2023-04-03T04:19:40;4.72;;;1.77;;
11823;SDS011;5969;50.780;7.726;2023-04-03T04:22:58;6.97;;;1.80;;
11823;SDS011;5969;50.780;7.726;2023-04-03T04:29:47;3.03;;;1.52;;
11823;SDS011;5969;50.780;7.726;2023-04-03T04:32:48;2.78;;;1.77;;
11823;SDS011;5969;50.780;7.726;2023-04-03T04:35:40;3.45;;;1.38;;
11823;SDS011;5969;50.780;7.726;2023-04-03T04:41:17;3.28;;;1.40;;
11823;SDS011;5969;50.780;7.726;2023-04-03T04:41:50;4.78;;;1.85;;
11823;SDS011;5969;50.780;7.726;2023-04-03T04:48:08;2.17;;;1.52;;
11823;SDS011;5969;50.780;7.726;2023-04-03T04:50:51;4.00;;;1.52;;
11823;SDS011;5969;50.780;7.726;2023-04-03T04:53:36;2.38;;;1.63;;
11823;SDS011;5969;50.780;7.726;2023-04-03T04:56:16;2.35;;;1.60;;
11823;SDS011;5969;50.780;7.726;2023-04-03T05:11:41;4.20;;;1.58;;
11823;SDS011;5969;50.780;7.726;2023-04-03T05:15:10;3.75;;;1.65;;
11823;SDS011;5969;50.780;7.726;2023-04-03T05:21:55;1.95;;;1.45;;
11823;SDS011;5969;50.780;7.726;2023-04-03T05:27:01;3.95;;;1.50;;
11823;SDS011;5969;50.780;7.726;2023-04-03T05:37:24;3.47;;;1.65;;
11823;SDS011;5969;50.780;7.726;2023-04-03T13:19:14;2.63;;;1.35;;
11823;SDS011;5969;50.780;7.726;2023-04-03T13:21:43;2.25;;;1.38;;
11823;SDS011;5969;50.780;7.726;2023-04-03T13:24:11;2.30;;;1.35;;
11823;SDS011;5969;50.780;7.726;2023-04-03T13:26:39;1.67;;;1.02;;
11823;SDS011;5969;50.780;7.726;2023-04-03T13:29:14;1.60;;;1.45;;
11823;SDS011;5969;50.780;7.726;2023-04-03T13:31:51;2.65;;;1.50;;
11823;SDS011;5969;50.780;7.726;2023-04-03T13:34:19;2.00;;;1.45;;
11823;SDS011;5969;50.780;7.726;2023-04-03T13:36:54;2.55;;;1.50;;
11823;SDS011;5969;50.780;7.726;2023-04-03T13:39:23;1.80;;;1.40;;
11823;SDS011;5969;50.780;7.726;2023-04-03T13:41:52;3.10;;;1.30;;
11823;SDS011;5969;50.780;7.726;2023-04-03T13:44:32;2.03;;;1.20;;
11823;SDS011;5969;50.780;7.726;2023-04-03T13:47:14;3.22;;;1.60;;
11823;SDS011;5969;50.780;7.726;2023-04-03T13:49:44;1.42;;;1.33;;
11823;SDS011;5969;50.780;7.726;2023-04-03T13:52:20;2.22;;;1.30;;
11823;SDS011;5969;50.780;7.726;2023-04-03T13:54:51;1.95;;;1.08;;
11823;SDS011;5969;50.780;7.726;2023-04-03T13:57:20;1.45;;;1.05;;
11823;SDS011;5969;50.780;7.726;2023-04-03T13:59:47;2.03;;;1.00;;
11823;SDS011;5969;50.780;7.726;2023-04-03T14:02:18;2.95;;;1.20;;
11823;SDS011;5969;50.780;7.726;2023-04-03T14:04:49;2.00;;;1.40;;
11823;SDS011;5969;50.780;7.726;2023-04-03T14:07:21;2.05;;;1.40;;
11823;SDS011;5969;50.780;7.726;2023-04-03T14:09:48;1.15;;;1.05;;
11823;SDS011;5969;50.780;7.726;2023-04-03T14:12:17;1.40;;;1.30;;
11823;SDS011;5969;50.780;7.726;2023-04-03T14:14:47;2.60;;;1.20;;
11823;SDS011;5969;50.780;7.726;2023-04-03T14:17:16;2.75;;;1.27;;
11823;SDS011;5969;50.780;7.726;2023-04-03T14:19:47;1.60;;;1.00;;
11823;SDS011;5969;50.780;7.726;2023-04-03T14:22:16;4.78;;;1.40;;
11823;SDS011;5969;50.780;7.726;2023-04-03T14:24:46;1.45;;;1.20;;
11823;SDS011;5969;50.780;7.726;2023-04-03T14:27:15;2.17;;;1.30;;
11823;SDS011;5969;50.780;7.726;2023-04-03T14:29:45;3.05;;;1.33;;
11823;SDS011;5969;50.780;7.726;2023-04-03T14:32:14;2.05;;;1.20;;
11823;SDS011;5969;50.780;7.726;2023-04-03T14:34:44;1.75;;;1.10;;
11823;SDS011;5969;50.780;7.726;2023-04-03T14:37:12;2.67;;;1.20;;
11823;SDS011;5969;50.780;7.726;2023-04-03T14:39:41;1.90;;;1.25;;
11823;SDS011;5969;50.780;7.726;2023-04-03T14:42:13;2.15;;;1.23;;
11823;SDS011;5969;50.780;7.726;2023-04-03T14:44:41;2.58;;;1.30;;
11823;SDS011;5969;50.780;7.726;2023-04-03T14:47:09;1.60;;;1.23;;
11823;SDS011;5969;50.780;7.726;2023-04-03T14:49:37;2.63;;;1.67;;
11823;SDS011;5969;50.780;7.726;2023-04-03T14:52:06;4.05;;;1.27;;
11823;SDS011;5969;50.780;7.726;2023-04-03T14:54:56;3.35;;;1.40;;
11823;SDS011;5969;50.780;7.726;2023-04-03T14:57:24;2.45;;;1.17;;
11823;SDS011;5969;50.780;7.726;2023-04-03T14:59:52;1.58;;;1.10;;
11823;SDS011;5969;50.780;7.726;2023-04-03T15:02:29;1.88;;;1.13;;
11823;SDS011;5969;50.780;7.726;2023-04-03T15:04:59;1.73;;;1.10;;
11823;SDS011;5969;50.780;7.726;2023-04-03T15:07:30;1.40;;;1.08;;
11823;SDS011;5969;50.780;7.726;2023-04-03T15:09:59;2.58;;;1.25;;
11823;SDS011;5969;50.780;7.726;2023-04-03T15:12:28;2.05;;;1.20;;
11823;SDS011;5969;50.780;7.726;2023-04-03T15:14:55;2.80;;;1.27;;
11823;SDS011;5969;50.780;7.726;2023-04-03T15:17:22;2.97;;;1.10;;
11823;SDS011;5969;50.780;7.726;2023-04-03T15:19:49;1.83;;;1.27;;
11823;SDS011;5969;50.780;7.726;2023-04-03T15:22:17;1.83;;;1.10;;
11823;SDS011;5969;50.780;7.726;2023-04-03T15:24:46;1.85;;;1.10;;
11823;SDS011;5969;50.780;7.726;2023-04-03T15:27:14;2.22;;;1.10;;
11823;SDS011;5969;50.780;7.726;2023-04-03T15:29:41;2.42;;;0.98;;
11823;SDS011;5969;50.780;7.726;2023-04-03T15:32:10;1.52;;;1.10;;
11823;SDS011;5969;50.780;7.726;2023-04-03T15:34:38;2.20;;;1.08;;
11823;SDS011;5969;50.780;7.726;2023-04-03T15:37:05;2.10;;;1.27;;
11823;SDS011;5969;50.780;7.726;2023-04-03T15:39:33;1.50;;;0.90;;
11823;SDS011;5969;50.780;7.726;2023-04-03T15:42:01;2.83;;;1.50;;
11823;SDS011;5969;50.780;7.726;2023-04-03T15:44:31;2.20;;;1.15;;
11823;SDS011;5969;50.780;7.726;2023-04-03T15:46:59;2.33;;;1.20;;
11823;SDS011;5969;50.780;7.726;2023-04-03T15:49:29;2.75;;;1.27;;
11823;SDS011;5969;50.780;7.726;2023-04-03T15:51:56;2.17;;;1.45;;
11823;SDS011;5969;50.780;7.726;2023-04-03T15:54:23;2.53;;;1.35;;
11823;SDS011;5969;50.780;7.726;2023-04-03T15:56:51;2.40;;;1.13;;
11823;SDS011;5969;50.780;7.726;2023-04-03T15:59:19;2.20;;;1.52;;
11823;SDS011;5969;50.780;7.726;2023-04-03T16:01:46;1.98;;;1.45;;
11823;SDS011;5969;50.780;7.726;2023-04-03T16:04:14;1.55;;;1.23;;
11823;SDS011;5969;50.780;7.726;2023-04-03T16:06:41;2.35;;;1.50;;
11823;SDS011;5969;50.780;7.726;2023-04-03T16:09:09;2.05;;;1.10;;
11823;SDS011;5969;50.780;7.726;2023-04-03T16:11:36;3.42;;;2.03;;
11823;SDS011;5969;50.780;7.726;2023-04-03T16:14:04;2.22;;;1.75;;
11823;SDS011;5969;50.780;7.726;2023-04-03T16:16:32;2.65;;;1.10;;
11823;SDS011;5969;50.780;7.726;2023-04-03T16:19:00;2.10;;;1.23;;
11823;SDS011;5969;50.780;7.726;2023-04-03T16:21:27;1.50;;;1.17;;
11823;SDS011;5969;50.780;7.726;2023-04-03T16:23:56;2.95;;;1.30;;
11823;SDS011;5969;50.780;7.726;2023-04-03T16:26:23;1.52;;;1.20;;
11823;SDS011;5969;50.780;7.726;2023-04-03T16:28:50;1.65;;;1.00;;
11823;SDS011;5969;50.780;7.726;2023-04-03T16:31:17;2.50;;;1.50;;
11823;SDS011;5969;50.780;7.726;2023-04-03T16:33:46;2.10;;;1.20;;
11823;SDS011;5969;50.780;7.726;2023-04-03T16:36:16;2.08;;;1.45;;
11823;SDS011;5969;50.780;7.726;2023-04-03T16:38:43;3.65;;;1.63;;
11823;SDS011;5969;50.780;7.726;2023-04-03T16:41:10;3.58;;;1.90;;
11823;SDS011;5969;50.780;7.726;2023-04-03T16:43:37;4.25;;;2.75;;
11823;SDS011;5969;50.780;7.726;2023-04-03T16:46:04;2.35;;;1.42;;
11823;SDS011;5969;50.780;7.726;2023-04-03T16:48:31;4.35;;;2.08;;
11823;SDS011;5969;50.780;7.726;2023-04-03T16:50:59;2.72;;;1.80;;
11823;SDS011;5969;50.780;7.726;2023-04-03T16:53:26;3.22;;;2.58;;
11823;SDS011;5969;50.780;7.726;2023-04-03T16:55:54;3.55;;;2.00;;
11823;SDS011;5969;50.780;7.726;2023-04-03T16:58:23;4.63;;;2.80;;
11823;SDS011;5969;50.780;7.726;2023-04-03T17:00:57;3.63;;;2.40;;
11823;SDS011;5969;50.780;7.726;2023-04-03T17:03:24;4.25;;;2.75;;
11823;SDS011;5969;50.780;7.726;2023-04-03T17:05:53;5.90;;;3.80;;
11823;SDS011;5969;50.780;7.726;2023-04-03T17:08:21;4.88;;;3.35;;
11823;SDS011;5969;50.780;7.726;2023-04-03T17:10:49;6.50;;;4.15;;
11823;SDS011;5969;50.780;7.726;2023-04-03T17:13:18;4.22;;;2.17;;
11823;SDS011;5969;50.780;7.726;2023-04-03T17:15:45;4.60;;;2.63;;
11823;SDS011;5969;50.780;7.726;2023-04-03T17:18:12;3.95;;;2.10;;
11823;SDS011;5969;50.780;7.726;2023-04-03T17:20:40;4.10;;;2.80;;
11823;SDS011;5969;50.780;7.726;2023-04-03T17:23:07;2.45;;;1.90;;
11823;SDS011;5969;50.780;7.726;2023-04-03T17:25:35;3.60;;;2.30;;
11823;SDS011;5969;50.780;7.726;2023-04-03T17:28:02;6.32;;;3.00;;
11823;SDS011;5969;50.780;7.726;2023-04-03T17:30:29;4.88;;;3.03;;
11823;SDS011;5969;50.780;7.726;2023-04-03T17:32:59;3.92;;;1.98;;
11823;SDS011;5969;50.780;7.726;2023-04-03T17:35:26;4.97;;;1.98;;
11823;SDS011;5969;50.780;7.726;2023-04-03T17:37:54;2.33;;;1.70;;
11823;SDS011;5969;50.780;7.726;2023-04-03T17:40:21;3.60;;;2.00;;
11823;SDS011;5969;50.780;7.726;2023-04-03T17:42:49;3.72;;;1.70;;
11823;SDS011;5969;50.780;7.726;2023-04-03T17:45:18;2.60;;;1.73;;
11823;SDS011;5969;50.780;7.726;2023-04-03T17:47:45;2.65;;;2.25;;
11823;SDS011;5969;50.780;7.726;2023-04-03T17:50:14;4.63;;;1.83;;
11823;SDS011;5969;50.780;7.726;2023-04-03T17:52:43;2.63;;;1.50;;
11823;SDS011;5969;50.780;7.726;2023-04-03T17:55:10;3.03;;;1.65;;
11823;SDS011;5969;50.780;7.726;2023-04-03T17:57:37;2.13;;;1.60;;
11823;SDS011;5969;50.780;7.726;2023-04-03T18:00:07;2.30;;;1.52;;
11823;SDS011;5969;50.780;7.726;2023-04-03T18:02:35;3.22;;;1.75;;
11823;SDS011;5969;50.780;7.726;2023-04-03T18:05:02;3.30;;;1.55;;
11823;SDS011;5969;50.780;7.726;2023-04-03T18:07:29;3.38;;;1.83;;
11823;SDS011;5969;50.780;7.726;2023-04-03T18:09:56;3.35;;;1.90;;
11823;SDS011;5969;50.780;7.726;2023-04-03T18:12:24;3.45;;;2.10;;
11823;SDS011;5969;50.780;7.726;2023-04-03T18:14:51;3.92;;;1.83;;
11823;SDS011;5969;50.780;7.726;2023-04-03T18:17:22;2.03;;;1.38;;
11823;SDS011;5969;50.780;7.726;2023-04-03T18:19:50;4.80;;;1.90;;
11823;SDS011;5969;50.780;7.726;2023-04-03T18:22:21;5.18;;;3.13;;
11823;SDS011;5969;50.780;7.726;2023-04-03T18:24:52;4.40;;;3.00;;
11823;SDS011;5969;50.780;7.726;2023-04-03T18:27:20;2.90;;;2.08;;
11823;SDS011;5969;50.780;7.726;2023-04-03T18:29:51;6.18;;;3.50;;
11823;SDS011;5969;50.780;7.726;2023-04-03T18:32:25;4.35;;;2.42;;
11823;SDS011;5969;50.780;7.726;2023-04-03T18:34:52;2.80;;;2.20;;
11823;SDS011;5969;50.780;7.726;2023-04-03T18:37:19;5.47;;;2.97;;
11823;SDS011;5969;50.780;7.726;2023-04-03T18:39:48;5.47;;;3.28;;
11823;SDS011;5969;50.780;7.726;2023-04-03T18:42:15;8.27;;;3.88;;
11823;SDS011;5969;50.780;7.726;2023-04-03T18:44:46;3.38;;;2.15;;
11823;SDS011;5969;50.780;7.726;2023-04-03T18:47:15;2.30;;;2.10;;
11823;SDS011;5969;50.780;7.726;2023-04-03T18:49:44;4.57;;;2.45;;
11823;SDS011;5969;50.780;7.726;2023-04-03T18:52:11;3.50;;;2.40;;
11823;SDS011;5969;50.780;7.726;2023-04-03T18:54:38;4.30;;;2.70;;
11823;SDS011;5969;50.780;7.726;2023-04-03T18:57:07;5.38;;;3.00;;
11823;SDS011;5969;50.780;7.726;2023-04-03T18:59:35;5.72;;;2.90;;
11823;SDS011;5969;50.780;7.726;2023-04-03T19:02:02;5.35;;;3.72;;
11823;SDS011;5969;50.780;7.726;2023-04-03T19:04:31;3.45;;;2.13;;
11823;SDS011;5969;50.780;7.726;2023-04-03T19:06:59;3.47;;;2.25;;
11823;SDS011;5969;50.780;7.726;2023-04-03T19:09:29;2.85;;;2.25;;
11823;SDS011;5969;50.780;7.726;2023-04-03T19:11:57;4.35;;;2.33;;
11823;SDS011;5969;50.780;7.726;2023-04-03T19:14:30;4.88;;;2.20;;
11823;SDS011;5969;50.780;7.726;2023-04-03T19:17:00;4.82;;;2.60;;
11823;SDS011;5969;50.780;7.726;2023-04-03T19:19:29;4.13;;;2.80;;
11823;SDS011;5969;50.780;7.726;2023-04-03T19:22:04;4.97;;;2.55;;
11823;SDS011;5969;50.780;7.726;2023-04-03T19:24:31;4.25;;;2.60;;
11823;SDS011;5969;50.780;7.726;2023-04-03T19:27:04;3.67;;;2.55;;
11823;SDS011;5969;50.780;7.726;2023-04-03T19:29:33;4.90;;;2.38;;
11823;SDS011;5969;50.780;7.726;2023-04-03T19:32:02;4.43;;;2.30;;
11823;SDS011;5969;50.780;7.726;2023-04-03T19:34:29;4.47;;;2.30;;
11823;SDS011;5969;50.780;7.726;2023-04-03T19:37:08;5.60;;;2.55;;
11823;SDS011;5969;50.780;7.726;2023-04-03T19:39:35;5.32;;;2.15;;
11823;SDS011;5969;50.780;7.726;2023-04-03T19:42:05;4.72;;;2.17;;
11823;SDS011;5969;50.780;7.726;2023-04-03T19:44:33;3.90;;;2.20;;
11823;SDS011;5969;50.780;7.726;2023-04-03T19:47:00;4.03;;;1.67;;
11823;SDS011;5969;50.780;7.726;2023-04-03T19:49:30;4.63;;;2.03;;
11823;SDS011;5969;50.780;7.726;2023-04-03T19:51:57;2.92;;;1.83;;
11823;SDS011;5969;50.780;7.726;2023-04-03T19:54:26;4.25;;;1.80;;
11823;SDS011;5969;50.780;7.726;2023-04-03T19:56:53;2.67;;;1.83;;
11823;SDS011;5969;50.780;7.726;2023-04-03T19:59:19;4.10;;;2.00;;
11823;SDS011;5969;50.780;7.726;2023-04-03T20:01:51;3.03;;;1.77;;
11823;SDS011;5969;50.780;7.726;2023-04-03T20:04:18;3.03;;;1.80;;
11823;SDS011;5969;50.780;7.726;2023-04-03T20:06:45;4.07;;;1.63;;
11823;SDS011;5969;50.780;7.726;2023-04-03T20:11:47;4.65;;;2.03;;
11823;SDS011;5969;50.780;7.726;2023-04-03T20:14:14;3.45;;;2.03;;
11823;SDS011;5969;50.780;7.726;2023-04-03T20:16:41;4.20;;;2.35;;
11823;SDS011;5969;50.780;7.726;2023-04-03T20:19:09;3.10;;;2.25;;
11823;SDS011;5969;50.780;7.726;2023-04-03T20:21:44;5.32;;;2.13;;
11823;SDS011;5969;50.780;7.726;2023-04-03T20:24:14;6.28;;;3.72;;
11823;SDS011;5969;50.780;7.726;2023-04-03T20:26:42;4.43;;;2.75;;
11823;SDS011;5969;50.780;7.726;2023-04-03T20:29:12;4.18;;;3.15;;
11823;SDS011;5969;50.780;7.726;2023-04-03T20:31:40;4.30;;;3.30;;
11823;SDS011;5969;50.780;7.726;2023-04-03T20:34:10;5.40;;;2.42;;
11823;SDS011;5969;50.780;7.726;2023-04-03T20:36:38;6.35;;;2.10;;
11823;SDS011;5969;50.780;7.726;2023-04-03T20:39:04;3.05;;;2.05;;
11823;SDS011;5969;50.780;7.726;2023-04-03T20:41:31;3.50;;;2.80;;
11823;SDS011;5969;50.780;7.726;2023-04-03T20:44:01;7.25;;;3.50;;
11823;SDS011;5969;50.780;7.726;2023-04-03T20:46:29;6.68;;;3.10;;
11823;SDS011;5969;50.780;7.726;2023-04-03T20:49:05;13.02;;;5.68;;
11823;SDS011;5969;50.780;7.726;2023-04-03T20:51:32;8.60;;;4.90;;
11823;SDS011;5969;50.780;7.726;2023-04-03T20:53:59;7.55;;;4.38;;
11823;SDS011;5969;50.780;7.726;2023-04-03T20:56:28;5.13;;;2.90;;
11823;SDS011;5969;50.780;7.726;2023-04-03T20:58:57;5.88;;;3.63;;
11823;SDS011;5969;50.780;7.726;2023-04-03T21:01:25;5.03;;;3.03;;
11823;SDS011;5969;50.780;7.726;2023-04-03T21:03:55;3.63;;;3.03;;
11823;SDS011;5969;50.780;7.726;2023-04-03T21:21:18;3.25;;;2.40;;
11823;SDS011;5969;50.780;7.726;2023-04-03T21:23:48;4.90;;;2.30;;
11823;SDS011;5969;50.780;7.726;2023-04-03T21:26:16;4.30;;;2.42;;
11823;SDS011;5969;50.780;7.726;2023-04-03T21:28:45;5.18;;;3.05;;
11823;SDS011;5969;50.780;7.726;2023-04-03T21:31:11;3.97;;;2.30;;
11823;SDS011;5969;50.780;7.726;2023-04-03T21:33:40;4.57;;;2.35;;
11823;SDS011;5969;50.780;7.726;2023-04-03T21:36:07;3.33;;;2.22;;
11823;SDS011;5969;50.780;7.726;2023-04-03T21:38:34;4.90;;;2.15;;
11823;SDS011;5969;50.780;7.726;2023-04-03T21:41:01;4.03;;;2.53;;
11823;SDS011;5969;50.780;7.726;2023-04-03T21:43:28;4.25;;;2.20;;
11823;SDS011;5969;50.780;7.726;2023-04-03T21:48:43;4.00;;;2.13;;
11823;SDS011;5969;50.780;7.726;2023-04-03T21:51:11;5.78;;;2.50;;
11823;SDS011;5969;50.780;7.726;2023-04-03T21:53:37;4.40;;;2.75;;
11823;SDS011;5969;50.780;7.726;2023-04-03T21:56:05;4.32;;;2.92;;
11823;SDS011;5969;50.780;7.726;2023-04-03T21:58:35;4.03;;;2.55;;
11823;SDS011;5969;50.780;7.726;2023-04-03T22:01:08;5.05;;;2.90;;
11823;SDS011;5969;50.780;7.726;2023-04-03T22:03:36;4.80;;;3.15;;
11823;SDS011;5969;50.780;7.726;2023-04-03T22:06:18;6.53;;;3.95;;
11823;SDS011;5969;50.780;7.726;2023-04-03T22:08:45;8.95;;;5.32;;
11823;SDS011;5969;50.780;7.726;2023-04-03T22:11:12;8.48;;;5.82;;
11823;SDS011;5969;50.780;7.726;2023-04-03T22:13:40;12.77;;;6.65;;
11823;SDS011;5969;50.780;7.726;2023-04-03T22:16:08;10.73;;;6.22;;
11823;SDS011;5969;50.780;7.726;2023-04-03T22:18:36;11.95;;;6.68;;
11823;SDS011;5969;50.780;7.726;2023-04-03T22:21:13;9.75;;;5.82;;
11823;SDS011;5969;50.780;7.726;2023-04-03T22:23:41;6.82;;;4.78;;
11823;SDS011;5969;50.780;7.726;2023-04-03T22:26:09;8.65;;;5.60;;
11823;SDS011;5969;50.780;7.726;2023-04-03T22:28:37;8.27;;;5.07;;
11823;SDS011;5969;50.780;7.726;2023-04-03T22:31:06;6.82;;;4.03;;
11823;SDS011;5969;50.780;7.726;2023-04-03T22:33:33;9.98;;;4.25;;
11823;SDS011;5969;50.780;7.726;2023-04-03T22:36:01;7.10;;;3.90;;
11823;SDS011;5969;50.780;7.726;2023-04-03T22:38:29;6.07;;;3.95;;
11823;SDS011;5969;50.780;7.726;2023-04-03T22:40:57;5.57;;;3.72;;
11823;SDS011;5969;50.780;7.726;2023-04-03T22:43:25;5.25;;;3.40;;
11823;SDS011;5969;50.780;7.726;2023-04-03T22:45:53;5.85;;;3.33;;
11823;SDS011;5969;50.780;7.726;2023-04-03T22:48:20;6.22;;;3.90;;
11823;SDS011;5969;50.780;7.726;2023-04-03T22:50:47;6.32;;;3.88;;
11823;SDS011;5969;50.780;7.726;2023-04-03T22:53:15;4.80;;;3.40;;
11823;SDS011;5969;50.780;7.726;2023-04-03T22:55:52;6.07;;;3.15;;
11823;SDS011;5969;50.780;7.726;2023-04-03T22:58:21;5.28;;;3.10;;
11823;SDS011;5969;50.780;7.726;2023-04-03T23:00:50;5.85;;;3.00;;
11823;SDS011;5969;50.780;7.726;2023-04-03T23:03:17;4.22;;;2.83;;
11823;SDS011;5969;50.780;7.726;2023-04-03T23:05:44;4.60;;;2.47;;
11823;SDS011;5969;50.780;7.726;2023-04-03T23:08:11;4.53;;;2.40;;
11823;SDS011;5969;50.780;7.726;2023-04-03T23:10:39;4.68;;;2.30;;
11823;SDS011;5969;50.780;7.726;2023-04-03T23:13:07;3.88;;;2.58;;
11823;SDS011;5969;50.780;7.726;2023-04-03T23:15:35;6.60;;;2.58;;
11823;SDS011;5969;50.780;7.726;2023-04-03T23:18:02;6.43;;;3.08;;
11823;SDS011;5969;50.780;7.726;2023-04-03T23:20:29;3.53;;;2.33;;
11823;SDS011;5969;50.780;7.726;2023-04-03T23:22:58;3.17;;;2.75;;
11823;SDS011;5969;50.780;7.726;2023-04-03T23:25:25;5.25;;;2.63;;
11823;SDS011;5969;50.780;7.726;2023-04-03T23:27:52;6.22;;;2.90;;
11823;SDS011;5969;50.780;7.726;2023-04-03T23:30:21;4.50;;;2.40;;
11823;SDS011;5969;50.780;7.726;2023-04-03T23:32:51;4.07;;;2.38;;
11823;SDS011;5969;50.780;7.726;2023-04-03T23:35:18;3.47;;;2.17;;
11823;SDS011;5969;50.780;7.726;2023-04-03T23:37:44;5.53;;;2.58;;
11823;SDS011;5969;50.780;7.726;2023-04-03T23:40:11;4.18;;;2.30;;
11823;SDS011;5969;50.780;7.726;2023-04-03T23:42:38;5.30;;;2.30;;
11823;SDS011;5969;50.780;7.726;2023-04-03T23:45:06;6.68;;;2.72;;
11823;SDS011;5969;50.780;7.726;2023-04-03T23:47:34;4.20;;;2.13;;
11823;SDS011;5969;50.780;7.726;2023-04-03T23:50:09;3.58;;;2.35;;
11823;SDS011;5969;50.780;7.726;2023-04-03T23:52:36;3.67;;;2.30;;
11823;SDS011;5969;50.780;7.726;2023-04-03T23:55:04;3.72;;;2.45;;
11823;SDS011;5969;50.780;7.726;2023-04-03T23:57:31;5.25;;;2.40;;
11823;SDS011;5969;50.780;7.726;2023-04-03T23:59:58;3.85;;;2.00;;
